createdAt,value
2022-11-20T00:02:33.160Z,18.60
2022-11-20T00:07:40.185Z,18.70
2022-11-20T00:10:16.040Z,18.70
2022-11-20T00:12:45.926Z,18.70
2022-11-20T00:15:15.656Z,18.70
2022-11-20T00:20:16.764Z,18.60
2022-11-20T00:22:46.291Z,18.70
2022-11-20T00:25:16.444Z,18.70
2022-11-20T00:27:45.958Z,18.60
2022-11-20T00:30:17.189Z,18.60
2022-11-20T00:32:46.734Z,18.60
2022-11-20T00:35:16.966Z,18.60
2022-11-20T00:37:46.681Z,18.60
2022-11-20T00:40:17.734Z,18.60
2022-11-20T00:42:47.415Z,18.60
2022-11-20T00:45:23.966Z,18.60
2022-11-20T00:48:05.743Z,18.60
2022-11-20T00:50:42.800Z,18.60
2022-11-20T00:53:18.827Z,18.60
2022-11-20T00:56:08.295Z,18.60
2022-11-20T00:58:41.121Z,18.60
2022-11-20T01:01:13.158Z,18.60
2022-11-20T01:03:46.713Z,18.60
2022-11-20T01:06:26.630Z,18.60
2022-11-20T01:09:01.165Z,18.60
2022-11-20T01:11:32.901Z,18.60
2022-11-20T01:14:06.145Z,18.60
2022-11-20T01:16:44.045Z,18.60
2022-11-20T01:19:19.290Z,18.60
2022-11-20T01:21:54.333Z,18.60
2022-11-20T01:24:24.949Z,18.60
2022-11-20T01:27:00.961Z,18.60
2022-11-20T01:29:36.064Z,18.60
2022-11-20T01:32:12.015Z,18.60
2022-11-20T01:34:44.580Z,18.60
2022-11-20T01:37:24.788Z,18.60
2022-11-20T01:40:00.491Z,18.60
2022-11-20T01:42:48.949Z,18.60
2022-11-20T01:45:51.450Z,18.60
2022-11-20T01:48:21.720Z,18.60
2022-11-20T01:50:57.106Z,18.60
2022-11-20T01:53:29.234Z,18.60
2022-11-20T01:56:02.705Z,18.70
2022-11-20T01:58:37.443Z,18.70
2022-11-20T02:01:13.129Z,18.70
2022-11-20T02:03:48.901Z,18.70
2022-11-20T02:06:47.180Z,18.70
2022-11-20T02:09:21.413Z,18.70
2022-11-20T02:11:57.108Z,18.80
2022-11-20T02:14:32.468Z,18.80
2022-11-20T02:17:09.229Z,18.80
2022-11-20T02:19:40.875Z,18.90
2022-11-20T02:22:27.639Z,18.90
2022-11-20T02:25:07.657Z,18.90
2022-11-20T02:27:52.063Z,18.90
2022-11-20T02:30:25.345Z,19.00
2022-11-20T02:33:01.582Z,19.00
2022-11-20T02:35:30.775Z,19.00
2022-11-20T02:38:02.309Z,19.00
2022-11-20T02:40:32.373Z,19.00
2022-11-20T02:43:03.898Z,19.10
2022-11-20T02:45:37.568Z,19.00
2022-11-20T02:48:11.662Z,19.10
2022-11-20T02:50:49.073Z,19.10
2022-11-20T02:53:22.184Z,19.10
2022-11-20T02:55:54.343Z,19.20
2022-11-20T02:58:24.501Z,19.20
2022-11-20T03:00:58.271Z,19.20
2022-11-20T03:03:33.664Z,19.20
2022-11-20T03:06:08.796Z,19.20
2022-11-20T03:08:44.798Z,19.30
2022-11-20T03:11:18.001Z,19.30
2022-11-20T03:13:47.588Z,19.30
2022-11-20T03:16:21.222Z,19.30
2022-11-20T03:18:57.124Z,19.40
2022-11-20T03:21:27.175Z,19.40
2022-11-20T03:23:57.474Z,19.40
2022-11-20T03:26:28.351Z,19.40
2022-11-20T03:28:59.560Z,19.40
2022-11-20T03:31:41.990Z,19.50
2022-11-20T03:34:13.744Z,19.40
2022-11-20T03:36:44.194Z,19.50
2022-11-20T03:39:14.133Z,19.40
2022-11-20T03:41:44.352Z,19.50
2022-11-20T03:44:14.870Z,19.50
2022-11-20T03:46:44.961Z,19.50
2022-11-20T03:49:16.819Z,19.50
2022-11-20T03:51:46.931Z,19.50
2022-11-20T03:54:17.403Z,19.50
2022-11-20T03:56:47.025Z,19.50
2022-11-20T03:59:23.123Z,19.50
2022-11-20T04:01:55.630Z,19.50
2022-11-20T04:04:37.652Z,19.50
2022-11-20T04:07:16.014Z,19.50
2022-11-20T04:09:45.668Z,19.60
2022-11-20T04:12:15.144Z,19.50
2022-11-20T04:14:45.132Z,19.60
2022-11-20T04:17:17.681Z,19.60
2022-11-20T04:19:47.955Z,19.50
2022-11-20T04:22:23.838Z,19.60
2022-11-20T04:24:56.828Z,19.60
2022-11-20T04:27:32.954Z,19.60
2022-11-20T04:30:02.723Z,19.60
2022-11-20T04:32:32.628Z,19.60
2022-11-20T04:35:05.229Z,19.60
2022-11-20T04:37:37.381Z,19.60
2022-11-20T04:40:10.037Z,19.60
2022-11-20T04:42:42.098Z,19.60
2022-11-20T04:45:12.937Z,19.60
2022-11-20T04:47:45.022Z,19.60
2022-11-20T04:50:15.222Z,19.70
2022-11-20T04:52:44.846Z,19.70
2022-11-20T04:55:16.896Z,19.70
2022-11-20T04:57:46.485Z,19.70
2022-11-20T05:00:16.761Z,19.70
2022-11-20T05:02:46.365Z,19.70
2022-11-20T05:05:18.026Z,19.70
2022-11-20T05:07:48.187Z,19.70
2022-11-20T05:10:18.403Z,19.70
2022-11-20T05:12:48.038Z,19.70
2022-11-20T05:15:24.133Z,19.70
2022-11-20T05:18:00.082Z,19.70
2022-11-20T05:20:40.971Z,19.70
2022-11-20T05:23:13.975Z,19.70
2022-11-20T05:25:46.789Z,19.70
2022-11-20T05:28:22.896Z,19.60
2022-11-20T05:30:52.682Z,19.60
2022-11-20T05:33:27.056Z,19.60
2022-11-20T05:36:07.024Z,19.60
2022-11-20T05:38:41.215Z,19.70
2022-11-20T05:41:21.951Z,19.60
2022-11-20T05:43:52.894Z,19.60
2022-11-20T05:46:29.650Z,19.60
2022-11-20T05:49:02.060Z,19.60
2022-11-20T05:51:35.188Z,19.50
2022-11-20T05:54:09.193Z,19.60
2022-11-20T05:56:45.285Z,19.50
2022-11-20T05:59:16.672Z,19.60
2022-11-20T06:01:46.240Z,19.60
2022-11-20T06:04:18.829Z,19.60
2022-11-20T06:06:50.317Z,19.60
2022-11-20T06:09:21.626Z,19.60
2022-11-20T06:11:56.237Z,19.60
2022-11-20T06:14:32.310Z,19.60
2022-11-20T06:17:05.617Z,19.60
2022-11-20T06:19:38.204Z,19.50
2022-11-20T06:22:11.031Z,19.50
2022-11-20T06:24:43.850Z,19.50
2022-11-20T06:27:24.037Z,19.50
2022-11-20T06:30:04.039Z,19.50
2022-11-20T06:32:36.985Z,19.50
2022-11-20T06:35:10.314Z,19.50
2022-11-20T06:37:43.184Z,19.50
2022-11-20T06:40:17.058Z,19.50
2022-11-20T06:42:46.814Z,19.50
2022-11-20T06:45:17.039Z,19.50
2022-11-20T06:47:47.385Z,19.50
2022-11-20T06:50:24.146Z,19.50
2022-11-20T06:53:02.959Z,19.50
2022-11-20T06:55:38.800Z,19.50
2022-11-20T06:58:15.815Z,19.50
2022-11-20T07:00:50.649Z,19.50
2022-11-20T07:03:23.082Z,19.50
2022-11-20T07:05:59.144Z,19.50
2022-11-20T07:08:34.033Z,19.50
2022-11-20T07:11:05.486Z,19.50
2022-11-20T07:13:37.039Z,19.50
2022-11-20T07:16:09.221Z,19.50
2022-11-20T07:18:48.830Z,19.50
2022-11-20T07:21:28.330Z,19.50
2022-11-20T07:24:08.584Z,19.50
2022-11-20T07:26:53.548Z,19.50
2022-11-20T07:29:24.414Z,19.50
2022-11-20T07:32:00.504Z,19.50
2022-11-20T07:34:33.573Z,19.50
2022-11-20T07:37:10.210Z,19.50
2022-11-20T07:39:41.459Z,19.50
2022-11-20T07:42:15.022Z,19.50
2022-11-20T07:44:45.046Z,19.50
2022-11-20T07:47:20.818Z,19.50
2022-11-20T07:49:52.543Z,19.50
2022-11-20T07:52:25.473Z,19.50
2022-11-20T07:54:58.346Z,19.50
2022-11-20T07:57:28.902Z,19.50
2022-11-20T08:00:04.641Z,19.50
2022-11-20T08:02:45.667Z,19.50
2022-11-20T08:05:17.991Z,19.50
2022-11-20T08:07:48.210Z,19.50
2022-11-20T08:10:29.772Z,19.50
2022-11-20T08:13:19.779Z,19.50
2022-11-20T08:16:04.905Z,19.50
2022-11-20T08:18:40.038Z,19.50
2022-11-20T08:21:09.669Z,19.50
2022-11-20T08:23:44.160Z,19.50
2022-11-20T08:26:26.061Z,19.50
2022-11-20T08:29:02.040Z,19.50
2022-11-20T08:31:34.887Z,19.50
2022-11-20T08:34:08.926Z,19.50
2022-11-20T08:36:45.559Z,19.50
2022-11-20T08:39:15.990Z,19.50
2022-11-20T08:41:58.127Z,19.50
2022-11-20T08:44:30.181Z,19.50
2022-11-20T08:47:02.224Z,19.40
2022-11-20T08:49:32.398Z,19.40
2022-11-20T08:52:13.709Z,19.40
2022-11-20T08:54:47.017Z,19.50
2022-11-20T08:57:23.051Z,19.40
2022-11-20T09:00:05.911Z,19.40
2022-11-20T09:02:44.231Z,19.50
2022-11-20T09:05:16.498Z,19.40
2022-11-20T09:07:52.306Z,19.40
2022-11-20T09:10:28.235Z,19.40
2022-11-20T09:13:04.110Z,19.40
2022-11-20T09:15:34.669Z,19.40
2022-11-20T09:18:10.132Z,19.40
2022-11-20T09:20:42.473Z,19.40
2022-11-20T09:23:12.997Z,19.40
2022-11-20T09:25:47.410Z,19.30
2022-11-20T09:28:20.709Z,19.30
2022-11-20T09:30:56.758Z,19.30
2022-11-20T09:33:32.387Z,19.30
2022-11-20T09:36:08.334Z,19.30
2022-11-20T09:38:49.246Z,19.30
2022-11-20T09:41:51.888Z,19.30
2022-11-20T09:44:56.691Z,19.30
2022-11-20T09:47:40.912Z,19.30
2022-11-20T09:50:37.744Z,19.20
2022-11-20T09:53:13.820Z,19.20
2022-11-20T09:55:45.684Z,19.30
2022-11-20T09:58:48.833Z,19.20
2022-11-20T10:01:22.536Z,19.20
2022-11-20T10:04:23.078Z,19.20
2022-11-20T10:07:30.303Z,19.20
2022-11-20T10:09:56.416Z,19.20
2022-11-20T10:12:54.274Z,19.20
2022-11-20T10:18:36.003Z,19.20
2022-11-20T10:21:38.994Z,19.20
2022-11-20T10:24:27.381Z,19.20
2022-11-20T10:27:03.507Z,19.20
2022-11-20T10:29:44.382Z,19.10
2022-11-20T10:32:24.936Z,19.10
2022-11-20T10:35:05.082Z,19.20
2022-11-20T10:37:40.837Z,19.20
2022-11-20T10:40:30.658Z,19.10
2022-11-20T10:43:04.444Z,19.10
2022-11-20T10:45:53.392Z,19.10
2022-11-20T10:48:29.483Z,19.10
2022-11-20T10:51:09.718Z,19.10
2022-11-20T10:53:47.856Z,19.10
2022-11-20T10:56:28.363Z,19.10
2022-11-20T10:59:20.592Z,19.10
2022-11-20T11:01:56.416Z,19.10
2022-11-20T11:04:58.892Z,19.00
2022-11-20T11:07:41.590Z,19.10
2022-11-20T11:10:32.479Z,19.10
2022-11-20T11:13:13.841Z,19.00
2022-11-20T11:15:52.592Z,19.00
2022-11-20T11:18:41.636Z,19.00
2022-11-20T11:21:11.478Z,19.00
2022-11-20T11:23:45.584Z,19.00
2022-11-20T11:26:26.002Z,19.00
2022-11-20T11:29:05.265Z,19.10
2022-11-20T11:31:37.128Z,19.00
2022-11-20T11:34:24.002Z,19.00
2022-11-20T11:37:03.528Z,19.00
2022-11-20T11:39:47.549Z,19.00
2022-11-20T11:42:20.906Z,19.00
2022-11-20T11:45:09.348Z,19.00
2022-11-20T11:47:47.080Z,19.00
2022-11-20T11:50:32.991Z,19.00
2022-11-20T11:53:15.373Z,19.00
2022-11-20T11:55:56.438Z,19.00
2022-11-20T11:58:53.621Z,19.00
2022-11-20T12:01:43.335Z,19.00
2022-11-20T12:04:49.742Z,19.00
2022-11-20T12:07:45.926Z,19.00
2022-11-20T12:10:26.835Z,19.00
2022-11-20T12:13:05.416Z,19.00
2022-11-20T12:15:37.013Z,19.00
2022-11-20T12:18:18.464Z,19.00
2022-11-20T12:20:58.469Z,18.90
2022-11-20T12:23:42.041Z,19.00
2022-11-20T12:26:35.269Z,19.00
2022-11-20T12:29:17.924Z,18.90
2022-11-20T12:32:08.245Z,18.90
2022-11-20T12:35:01.125Z,18.90
2022-11-20T12:38:17.483Z,18.90
2022-11-20T12:41:01.294Z,18.90
2022-11-20T12:43:53.415Z,18.90
2022-11-20T12:46:52.526Z,18.90
2022-11-20T12:49:34.472Z,18.90
2022-11-20T12:52:15.372Z,18.90
2022-11-20T12:54:57.097Z,18.80
2022-11-20T12:57:49.067Z,18.90
2022-11-20T13:00:28.042Z,18.80
2022-11-20T13:03:16.965Z,18.80
2022-11-20T13:05:56.765Z,18.90
2022-11-20T13:08:30.014Z,18.80
2022-11-20T13:11:06.122Z,18.90
2022-11-20T13:13:41.966Z,18.80
2022-11-20T13:16:27.314Z,18.80
2022-11-20T13:19:04.856Z,18.80
2022-11-20T13:21:45.667Z,18.80
2022-11-20T13:24:32.834Z,18.80
2022-11-20T13:27:13.299Z,18.80
2022-11-20T13:30:12.844Z,18.80
2022-11-20T13:33:09.015Z,18.80
2022-11-20T13:35:48.534Z,18.80
2022-11-20T13:38:33.871Z,18.80
2022-11-20T13:41:26.573Z,18.80
2022-11-20T13:44:11.261Z,18.70
2022-11-20T13:46:49.492Z,18.70
2022-11-20T13:49:29.504Z,18.70
2022-11-20T13:52:35.773Z,18.70
2022-11-20T13:55:38.245Z,18.70
2022-11-20T13:58:33.588Z,18.80
2022-11-20T14:01:13.813Z,18.70
2022-11-20T14:04:05.130Z,18.70
2022-11-20T14:06:49.015Z,18.70
2022-11-20T14:09:33.955Z,18.70
2022-11-20T14:12:04.806Z,18.70
2022-11-20T14:14:37.959Z,18.80
2022-11-20T14:17:43.274Z,18.70
2022-11-20T14:20:17.483Z,18.70
2022-11-20T14:23:06.096Z,18.70
2022-11-20T14:25:44.813Z,18.70
2022-11-20T14:28:21.221Z,18.70
2022-11-20T14:31:00.462Z,18.70
2022-11-20T14:33:32.370Z,18.70
2022-11-20T14:36:08.432Z,18.70
2022-11-20T14:38:41.511Z,18.70
2022-11-20T14:41:22.209Z,18.70
2022-11-20T14:44:02.435Z,18.70
2022-11-20T14:46:33.089Z,18.70
2022-11-20T14:49:09.743Z,18.60
2022-11-20T14:51:43.262Z,18.70
2022-11-20T14:54:27.595Z,18.60
2022-11-20T14:57:01.703Z,18.60
2022-11-20T14:59:33.265Z,18.60
2022-11-20T15:02:16.417Z,18.60
2022-11-20T15:05:04.693Z,18.60
2022-11-20T15:07:39.030Z,18.60
2022-11-20T15:10:39.470Z,18.60
2022-11-20T15:13:17.765Z,18.60
2022-11-20T15:15:57.500Z,18.60
2022-11-20T15:18:34.561Z,18.60
2022-11-20T15:21:17.695Z,18.60
2022-11-20T15:24:01.414Z,18.60
2022-11-20T15:26:37.604Z,18.60
2022-11-20T15:29:11.944Z,18.60
2022-11-20T15:31:46.975Z,18.60
2022-11-20T15:34:21.092Z,18.60
2022-11-20T15:36:56.337Z,18.60
2022-11-20T15:39:36.072Z,18.60
2022-11-20T15:42:05.934Z,18.60
2022-11-20T15:44:36.996Z,18.60
2022-11-20T15:47:12.099Z,18.60
2022-11-20T15:49:51.594Z,18.60
2022-11-20T15:52:41.908Z,18.60
2022-11-20T15:55:20.255Z,18.50
2022-11-20T15:57:51.925Z,18.50
2022-11-20T16:00:24.592Z,18.50
2022-11-20T16:02:57.839Z,18.60
2022-11-20T16:05:37.005Z,18.50
2022-11-20T16:08:12.331Z,18.50
2022-11-20T16:10:53.309Z,18.50
2022-11-20T16:13:44.927Z,18.50
2022-11-20T16:16:24.344Z,18.50
2022-11-20T16:19:01.356Z,18.50
2022-11-20T16:21:34.009Z,18.50
2022-11-20T16:24:05.452Z,18.50
2022-11-20T16:26:40.511Z,18.50
2022-11-20T16:29:21.904Z,18.50
2022-11-20T16:31:57.777Z,18.50
2022-11-20T16:34:32.832Z,18.50
2022-11-20T16:37:08.601Z,18.50
2022-11-20T16:39:49.537Z,18.50
2022-11-20T16:42:28.338Z,18.50
2022-11-20T16:45:04.254Z,18.50
2022-11-20T16:47:43.761Z,18.50
2022-11-20T16:50:25.180Z,18.50
2022-11-20T16:52:56.838Z,18.50
2022-11-20T16:55:29.348Z,18.50
2022-11-20T16:58:05.039Z,18.50
2022-11-20T17:00:37.446Z,18.50
2022-11-20T17:03:10.955Z,18.50
2022-11-20T17:05:41.267Z,18.40
2022-11-20T17:08:16.035Z,18.40
2022-11-20T17:10:49.466Z,18.50
2022-11-20T17:13:25.373Z,18.40
2022-11-20T17:16:01.508Z,18.50
2022-11-20T17:18:36.551Z,18.50
2022-11-20T17:21:06.996Z,18.50
2022-11-20T17:23:41.471Z,18.40
2022-11-20T17:26:15.835Z,18.40
2022-11-20T17:29:05.067Z,18.40
2022-11-20T17:31:41.119Z,18.40
2022-11-20T17:34:13.232Z,18.40
2022-11-20T17:36:46.127Z,18.40
2022-11-20T17:39:16.847Z,18.40
2022-11-20T17:41:46.586Z,18.40
2022-11-20T17:44:17.484Z,18.40
2022-11-20T17:46:53.680Z,18.40
2022-11-20T17:49:29.863Z,18.40
2022-11-20T17:52:02.774Z,18.40
2022-11-20T17:54:43.853Z,18.40
2022-11-20T17:57:35.998Z,18.40
2022-11-20T18:00:05.959Z,18.40
2022-11-20T18:02:41.401Z,18.40
2022-11-20T18:05:14.930Z,18.40
2022-11-20T18:07:56.859Z,18.40
2022-11-20T18:10:35.000Z,18.40
2022-11-20T18:13:05.370Z,18.40
2022-11-20T18:15:41.165Z,18.40
2022-11-20T18:18:16.820Z,18.40
2022-11-20T18:20:52.460Z,18.40
2022-11-20T18:23:22.741Z,18.30
2022-11-20T18:25:53.103Z,18.40
2022-11-20T18:28:25.314Z,18.40
2022-11-20T18:30:57.125Z,18.30
2022-11-20T18:33:28.596Z,18.30
2022-11-20T18:36:04.589Z,18.40
2022-11-20T18:38:45.762Z,18.30
2022-11-20T18:41:34.958Z,18.30
2022-11-20T18:44:26.549Z,18.30
2022-11-20T18:46:59.494Z,18.30
2022-11-20T18:52:13.057Z,18.30
2022-11-20T18:54:46.579Z,18.30
2022-11-20T18:57:24.883Z,18.30
2022-11-20T18:59:57.452Z,18.30
2022-11-20T19:02:29.253Z,18.30
2022-11-20T19:05:01.878Z,18.30
2022-11-20T19:07:36.641Z,18.30
2022-11-20T19:10:13.400Z,18.30
2022-11-20T19:12:45.214Z,18.30
2022-11-20T19:15:18.771Z,18.30
2022-11-20T19:17:51.075Z,18.20
2022-11-20T19:20:25.507Z,18.30
2022-11-20T19:23:00.265Z,18.20
2022-11-20T19:25:37.939Z,18.20
2022-11-20T19:28:11.340Z,18.20
2022-11-20T19:30:42.908Z,18.20
2022-11-20T19:33:14.213Z,18.20
2022-11-20T19:35:50.339Z,18.20
2022-11-20T19:38:23.345Z,18.20
2022-11-20T19:40:59.918Z,18.20
2022-11-20T19:43:36.547Z,18.20
2022-11-20T19:46:07.900Z,18.20
2022-11-20T19:48:38.597Z,18.20
2022-11-20T19:51:14.565Z,18.20
2022-11-20T19:53:43.750Z,18.20
2022-11-20T19:56:25.609Z,18.20
2022-11-20T19:59:01.516Z,18.20
2022-11-20T20:01:33.124Z,18.20
2022-11-20T20:04:06.117Z,18.20
2022-11-20T20:06:38.885Z,18.20
2022-11-20T20:09:20.641Z,18.10
2022-11-20T20:12:00.387Z,18.10
2022-11-20T20:17:16.213Z,18.20
2022-11-20T20:19:50.337Z,18.20
2022-11-20T20:22:29.741Z,18.10
2022-11-20T20:25:05.940Z,18.10
2022-11-20T20:27:40.322Z,18.10
2022-11-20T20:30:13.196Z,18.10
2022-11-20T20:32:43.465Z,18.10
2022-11-20T20:35:19.312Z,18.10
2022-11-20T20:37:56.105Z,18.10
2022-11-20T20:40:40.254Z,18.20
2022-11-20T20:43:22.089Z,18.10
2022-11-20T20:46:01.346Z,18.10
2022-11-20T20:48:36.645Z,18.10
2022-11-20T20:51:09.713Z,18.10
2022-11-20T20:53:39.449Z,18.10
2022-11-20T20:56:15.478Z,18.00
2022-11-20T20:58:49.982Z,18.10
2022-11-20T21:01:23.379Z,18.10
2022-11-20T21:03:59.599Z,18.10
2022-11-20T21:06:36.932Z,18.00
2022-11-20T21:09:12.682Z,18.00
2022-11-20T21:11:42.478Z,18.00
2022-11-20T21:14:16.998Z,18.10
2022-11-20T21:16:50.209Z,18.00
2022-11-20T21:19:21.482Z,18.00
2022-11-20T21:22:00.401Z,18.00
2022-11-20T21:24:38.437Z,18.00
2022-11-20T21:27:11.400Z,18.00
2022-11-20T21:29:43.642Z,18.00
2022-11-20T21:32:19.705Z,18.00
2022-11-20T21:35:01.409Z,18.00
2022-11-20T21:37:39.667Z,18.00
2022-11-20T21:40:13.926Z,18.00
2022-11-20T21:42:43.890Z,18.00
2022-11-20T21:45:19.998Z,18.00
2022-11-20T21:47:55.966Z,18.00
2022-11-20T21:53:19.881Z,18.00
2022-11-20T21:55:58.623Z,18.00
2022-11-20T21:58:29.300Z,18.00
2022-11-20T22:00:59.633Z,18.00
2022-11-20T22:03:29.796Z,18.00
2022-11-20T22:06:03.187Z,18.00
2022-11-20T22:08:34.805Z,18.00
2022-11-20T22:11:11.264Z,18.00
2022-11-20T22:14:00.194Z,18.00
2022-11-20T22:16:46.732Z,18.00
2022-11-20T22:19:23.248Z,18.00
2022-11-20T22:21:59.797Z,18.00
2022-11-20T22:24:34.661Z,18.00
2022-11-20T22:27:04.904Z,18.00
2022-11-20T22:29:34.926Z,18.00
2022-11-20T22:32:05.245Z,18.00
2022-11-20T22:34:38.609Z,18.00
2022-11-20T22:37:09.288Z,18.00
2022-11-20T22:39:45.011Z,18.00
2022-11-20T22:42:18.336Z,18.00
2022-11-20T22:44:48.459Z,18.00
2022-11-20T22:47:18.778Z,18.00
2022-11-20T22:49:49.263Z,18.00
2022-11-20T22:52:24.215Z,18.00
2022-11-20T22:54:57.022Z,18.00
2022-11-20T22:57:30.103Z,18.00
2022-11-20T23:00:01.587Z,18.00
2022-11-20T23:02:34.138Z,17.90
2022-11-20T23:05:09.739Z,18.00
2022-11-20T23:07:42.895Z,17.90
2022-11-20T23:10:25.397Z,17.90
2022-11-20T23:13:04.318Z,18.00
2022-11-20T23:15:39.024Z,18.00
2022-11-20T23:18:19.936Z,17.90
2022-11-20T23:20:53.191Z,17.90
2022-11-20T23:23:26.497Z,17.90
2022-11-20T23:25:58.473Z,18.00
2022-11-20T23:28:32.310Z,17.90
2022-11-20T23:31:13.901Z,17.90
2022-11-20T23:33:52.620Z,17.90
2022-11-20T23:36:33.567Z,17.90
2022-11-20T23:39:16.908Z,17.90
2022-11-20T23:41:55.951Z,18.00
2022-11-20T23:44:29.298Z,17.90
2022-11-20T23:47:04.372Z,18.00
2022-11-20T23:52:17.155Z,17.90
2022-11-20T23:54:46.596Z,17.90
2022-11-20T23:57:18.852Z,17.90
2022-11-20T23:59:49.048Z,17.90
